Time;durP1;ratioP1;P1;durP2;ratioP2;P2;SDS_P1;SDS_P2;PMS_P1;PMS_P2;Temp;Humidity;BMP_temperature;BMP_pressure;BME280_temperature;BME280_humidity;BME280_pressure;Samples;Min_cycle;Max_cycle;Signal;HPM_P1;HPM_P2
2021/10/17 00:01:10;;;;;;;3.50;3.17;;;9.90;99.90;;;;;;5056135;28;20230;-77
2021/10/17 00:03:37;;;;;;;3.78;3.47;;;9.90;99.90;;;;;;5062860;28;20225;-79
2021/10/17 00:06:04;;;;;;;4.82;3.70;;;9.90;99.90;;;;;;5060723;28;21209;-76
2021/10/17 00:08:31;;;;;;;3.60;3.30;;;9.80;99.90;;;;;;5059717;28;20222;-75
2021/10/17 00:10:59;;;;;;;3.90;3.50;;;9.80;99.90;;;;;;5059746;28;20234;-76
2021/10/17 00:13:26;;;;;;;3.35;3.05;;;9.80;99.90;;;;;;5030845;28;20639;-77
2021/10/17 00:15:53;;;;;;;3.63;3.33;;;9.80;99.90;;;;;;5058094;28;20303;-77
2021/10/17 00:18:22;;;;;;;3.95;3.65;;;9.80;99.90;;;;;;5060756;28;20234;-77
2021/10/17 00:20:49;;;;;;;4.03;3.63;;;9.80;99.90;;;;;;5055452;28;20233;-77
2021/10/17 00:23:16;;;;;;;4.10;3.70;;;9.80;99.90;;;;;;5057422;28;20226;-77
2021/10/17 00:25:43;;;;;;;3.60;3.30;;;9.80;99.90;;;;;;5059434;28;20233;-75
2021/10/17 00:28:10;;;;;;;3.45;3.15;;;9.80;99.90;;;;;;5057229;28;20786;-77
2021/10/17 00:30:37;;;;;;;5.22;3.47;;;9.80;99.90;;;;;;5057334;28;20218;-76
2021/10/17 00:33:04;;;;;;;3.83;3.42;;;9.70;99.90;;;;;;5054792;28;20874;-76
2021/10/17 00:35:33;;;;;;;3.75;3.45;;;9.70;99.90;;;;;;5058460;28;20214;-76
2021/10/17 00:38:00;;;;;;;3.70;3.35;;;9.70;99.90;;;;;;5055655;28;20246;-76
2021/10/17 00:40:27;;;;;;;3.80;3.47;;;9.70;99.90;;;;;;5055551;28;20234;-77
2021/10/17 00:42:56;;;;;;;4.20;3.80;;;9.70;99.90;;;;;;5085054;22;20229;-75
2021/10/17 00:45:27;;;;;;;3.53;3.30;;;9.60;99.90;;;;;;5075947;28;20222;-77
2021/10/17 00:47:54;;;;;;;4.15;3.75;;;9.60;99.90;;;;;;5080710;28;20221;-77
2021/10/17 00:50:21;;;;;;;4.07;3.72;;;9.60;99.90;;;;;;5076154;28;20229;-77
2021/10/17 00:52:50;;;;;;;3.28;3.08;;;9.50;99.90;;;;;;5074572;28;20304;-78
2021/10/17 00:55:18;;;;;;;4.07;3.70;;;9.50;99.90;;;;;;5078598;28;20217;-78
2021/10/17 00:57:46;;;;;;;4.90;4.15;;;9.40;99.90;;;;;;5078837;28;20244;-77
2021/10/17 01:00:15;;;;;;;3.90;3.60;;;9.40;99.90;;;;;;5079234;28;20274;-78
2021/10/17 01:02:43;;;;;;;4.57;4.18;;;9.40;99.90;;;;;;5077524;28;20274;-77
2021/10/17 01:05:13;;;;;;;3.95;3.55;;;9.30;99.90;;;;;;5079280;28;20628;-78
2021/10/17 01:07:41;;;;;;;3.85;3.55;;;9.30;99.90;;;;;;5078988;28;20213;-78
2021/10/17 01:10:09;;;;;;;3.80;3.50;;;9.20;99.90;;;;;;5077143;28;20282;-78
2021/10/17 01:12:37;;;;;;;3.70;3.40;;;9.20;99.90;;;;;;5079232;28;20232;-77
2021/10/17 01:15:04;;;;;;;3.63;3.33;;;9.20;99.90;;;;;;5082503;28;20294;-78
2021/10/17 01:17:31;;;;;;;4.30;3.90;;;9.20;99.90;;;;;;5079284;28;20249;-77
2021/10/17 01:20:00;;;;;;;4.10;3.80;;;9.20;99.90;;;;;;5075754;28;20230;-77
2021/10/17 01:22:27;;;;;;;3.70;3.42;;;9.20;99.90;;;;;;5079034;28;20222;-77
2021/10/17 01:24:54;;;;;;;4.30;3.65;;;9.20;99.90;;;;;;5082543;28;20229;-78
2021/10/17 01:27:21;;;;;;;4.10;3.72;;;9.10;99.90;;;;;;5076562;28;20226;-77
2021/10/17 01:29:49;;;;;;;4.45;4.03;;;9.10;99.90;;;;;;5082849;28;20213;-77
2021/10/17 01:32:16;;;;;;;4.07;3.70;;;9.00;99.90;;;;;;5075737;28;20229;-77
2021/10/17 01:34:43;;;;;;;4.20;3.80;;;9.00;99.90;;;;;;5076074;28;20287;-75
2021/10/17 01:37:11;;;;;;;3.58;3.33;;;9.00;99.90;;;;;;5076028;28;20229;-78
2021/10/17 01:39:38;;;;;;;4.00;3.70;;;9.00;99.90;;;;;;5079262;28;20763;-77
2021/10/17 01:42:05;;;;;;;3.95;3.53;;;8.90;99.90;;;;;;5078501;28;20283;-79
2021/10/17 01:44:36;;;;;;;3.63;3.33;;;8.90;99.90;;;;;;5075537;28;20668;-77
2021/10/17 01:47:06;;;;;;;3.85;3.55;;;8.90;99.90;;;;;;5075299;28;20317;-78
2021/10/17 01:49:34;;;;;;;4.07;3.72;;;8.90;99.90;;;;;;5078095;28;20240;-80
2021/10/17 01:52:01;;;;;;;5.07;3.72;;;8.90;99.90;;;;;;5072969;28;20278;-77
2021/10/17 01:54:30;;;;;;;3.80;3.50;;;8.80;99.90;;;;;;5077361;28;20286;-78
2021/10/17 01:56:57;;;;;;;3.78;3.47;;;8.80;99.90;;;;;;5074176;28;20290;-78
2021/10/17 01:59:24;;;;;;;3.92;3.17;;;8.80;99.90;;;;;;5074524;28;20222;-77
2021/10/17 02:01:51;;;;;;;3.63;3.33;;;8.80;99.90;;;;;;5078073;28;20843;-78
2021/10/17 02:04:18;;;;;;;4.10;3.70;;;8.80;99.90;;;;;;5083158;28;20584;-78
2021/10/17 02:06:45;;;;;;;4.15;3.80;;;8.70;99.90;;;;;;5085622;28;20286;-78
2021/10/17 02:09:12;;;;;;;4.88;3.88;;;8.80;99.90;;;;;;5086061;28;20267;-78
2021/10/17 02:11:40;;;;;;;3.97;3.60;;;8.80;99.90;;;;;;5083272;28;20641;-78
2021/10/17 02:14:07;;;;;;;4.15;3.85;;;8.70;99.90;;;;;;5083630;28;20221;-77
2021/10/17 02:16:34;;;;;;;3.83;3.53;;;8.70;99.90;;;;;;5082822;28;20221;-78
2021/10/17 02:19:01;;;;;;;3.90;3.60;;;8.60;99.90;;;;;;5087321;28;20229;-77
2021/10/17 02:21:28;;;;;;;4.13;3.72;;;8.60;99.90;;;;;;5085473;28;20294;-78
2021/10/17 02:23:55;;;;;;;3.55;3.33;;;8.60;99.90;;;;;;5085096;28;20275;-77
2021/10/17 02:26:23;;;;;;;3.50;3.30;;;8.60;99.90;;;;;;5086451;28;20228;-79
2021/10/17 02:28:51;;;;;;;4.65;3.80;;;8.50;99.90;;;;;;5083324;28;20226;-78
2021/10/17 02:31:18;;;;;;;3.70;3.38;;;8.60;99.90;;;;;;5085860;28;20214;-77
2021/10/17 02:33:45;;;;;;;3.80;3.50;;;8.60;99.90;;;;;;5085339;28;20277;-77
2021/10/17 02:36:12;;;;;;;3.55;3.25;;;8.60;99.90;;;;;;5083122;28;20466;-78
2021/10/17 02:38:39;;;;;;;3.92;3.63;;;8.60;99.90;;;;;;5075013;28;20561;-78
2021/10/17 02:41:07;;;;;;;4.05;3.65;;;8.50;99.90;;;;;;5076312;28;20233;-78
2021/10/17 02:43:34;;;;;;;3.92;3.55;;;8.50;99.90;;;;;;5074391;28;20294;-78
2021/10/17 02:46:02;;;;;;;3.72;3.42;;;8.50;99.90;;;;;;5075448;28;20233;-77
2021/10/17 02:48:29;;;;;;;3.30;3.05;;;8.50;99.90;;;;;;5075028;28;20282;-78
2021/10/17 02:50:56;;;;;;;3.22;3.03;;;8.40;99.90;;;;;;5079770;28;20229;-78
2021/10/17 02:53:23;;;;;;;3.92;3.63;;;8.40;99.90;;;;;;5076075;28;20229;-77
2021/10/17 02:55:50;;;;;;;3.92;3.58;;;8.40;99.90;;;;;;5074612;28;20308;-77
2021/10/17 02:58:17;;;;;;;4.03;3.65;;;8.40;99.90;;;;;;5074390;28;20233;-77
2021/10/17 03:00:44;;;;;;;3.95;3.65;;;8.40;99.90;;;;;;5074400;28;20217;-77
2021/10/17 03:03:13;;;;;;;4.18;3.78;;;8.30;99.90;;;;;;5075962;28;20279;-77
2021/10/17 03:05:40;;;;;;;3.58;3.28;;;8.30;99.90;;;;;;5075289;28;20339;-76
2021/10/17 03:08:07;;;;;;;3.92;3.63;;;8.30;99.90;;;;;;5073820;28;21157;-76
2021/10/17 03:10:34;;;;;;;3.50;3.25;;;8.30;99.90;;;;;;5074629;28;20291;-78
2021/10/17 03:13:01;;;;;;;4.50;3.53;;;8.30;99.90;;;;;;5074713;28;20284;-77
2021/10/17 03:15:28;;;;;;;3.55;3.25;;;8.30;99.90;;;;;;5077464;28;20221;-77
2021/10/17 03:17:55;;;;;;;4.15;3.85;;;8.20;99.90;;;;;;5075088;28;20228;-75
2021/10/17 03:20:24;;;;;;;3.47;3.25;;;8.20;99.90;;;;;;5075250;28;20235;-77
2021/10/17 03:22:51;;;;;;;3.28;3.08;;;8.20;99.90;;;;;;5072668;28;20283;-79
2021/10/17 03:25:18;;;;;;;3.45;3.25;;;8.20;99.90;;;;;;5075514;28;20225;-78
2021/10/17 03:27:45;;;;;;;3.70;3.40;;;8.20;99.90;;;;;;5074115;28;20606;-78
2021/10/17 03:30:14;;;;;;;4.03;3.50;;;8.20;99.90;;;;;;5076900;28;20288;-78
2021/10/17 03:32:41;;;;;;;3.70;3.40;;;8.30;99.90;;;;;;5086098;28;20221;-78
2021/10/17 03:35:09;;;;;;;3.85;3.55;;;8.20;99.90;;;;;;5084318;28;20220;-77
2021/10/17 03:37:37;;;;;;;3.72;3.50;;;8.30;99.90;;;;;;5084400;28;20270;-77
2021/10/17 03:40:06;;;;;;;3.80;3.58;;;8.30;99.90;;;;;;5081462;28;20275;-77
2021/10/17 03:42:33;;;;;;;3.47;3.17;;;8.20;99.90;;;;;;5058229;28;20270;-77
2021/10/17 03:45:00;;;;;;;3.30;3.10;;;8.20;99.90;;;;;;5084607;28;20235;-76
2021/10/17 03:47:27;;;;;;;4.00;3.70;;;8.20;99.90;;;;;;5084628;28;20638;-77
2021/10/17 03:49:54;;;;;;;3.88;3.58;;;8.20;99.90;;;;;;5081510;28;20221;-77
2021/10/17 03:52:21;;;;;;;3.67;3.38;;;8.20;99.90;;;;;;5078321;28;20652;-77
2021/10/17 03:54:49;;;;;;;3.53;3.33;;;8.10;99.90;;;;;;5080651;28;20270;-77
2021/10/17 03:57:16;;;;;;;3.90;3.60;;;8.10;99.90;;;;;;5077900;28;20278;-77
2021/10/17 03:59:43;;;;;;;3.95;3.65;;;8.10;99.90;;;;;;5082500;28;20213;-75
2021/10/17 04:02:10;;;;;;;3.85;3.55;;;8.00;99.90;;;;;;5084014;28;20233;-77
2021/10/17 04:04:37;;;;;;;4.05;3.65;;;8.00;99.90;;;;;;5082520;28;20217;-77
2021/10/17 04:07:06;;;;;;;4.20;3.80;;;8.00;99.90;;;;;;5075347;28;21898;-78
2021/10/17 04:09:33;;;;;;;4.10;3.80;;;8.00;99.90;;;;;;5074042;28;21019;-77
2021/10/17 04:12:01;;;;;;;3.67;3.38;;;8.00;99.90;;;;;;5077679;28;20224;-78
2021/10/17 04:14:28;;;;;;;3.28;3.03;;;8.00;99.90;;;;;;5074006;28;20222;-77
2021/10/17 04:16:55;;;;;;;3.83;3.53;;;8.00;99.90;;;;;;5074333;28;20226;-75
2021/10/17 04:19:22;;;;;;;3.72;3.42;;;7.90;99.90;;;;;;5074686;28;20225;-78
2021/10/17 04:21:49;;;;;;;3.65;3.35;;;7.90;99.90;;;;;;5076503;28;20233;-77
2021/10/17 04:24:16;;;;;;;3.85;3.55;;;7.90;99.90;;;;;;5073929;28;20233;-78
2021/10/17 04:26:44;;;;;;;4.13;3.72;;;7.90;99.90;;;;;;5074301;28;20313;-77
2021/10/17 04:29:13;;;;;;;3.70;3.40;;;7.90;99.90;;;;;;5073222;28;20727;-77
2021/10/17 04:31:40;;;;;;;3.92;3.63;;;7.90;99.90;;;;;;5075222;28;20597;-77
2021/10/17 04:34:07;;;;;;;3.58;3.28;;;7.90;99.90;;;;;;5073188;28;20230;-77
2021/10/17 04:36:34;;;;;;;3.22;2.92;;;7.90;99.90;;;;;;5074504;28;20271;-77
2021/10/17 04:39:01;;;;;;;3.85;3.53;;;7.90;99.90;;;;;;5074148;28;20214;-76
2021/10/17 04:41:28;;;;;;;3.63;3.33;;;7.80;99.90;;;;;;5076243;28;20217;-78
2021/10/17 04:43:57;;;;;;;3.58;3.28;;;7.80;99.90;;;;;;5076416;28;20646;-77
2021/10/17 04:46:25;;;;;;;3.13;2.83;;;7.80;99.90;;;;;;5073694;28;20770;-76
2021/10/17 04:48:52;;;;;;;3.83;3.53;;;7.80;99.90;;;;;;5083074;28;20270;-78
2021/10/17 04:51:19;;;;;;;3.40;3.20;;;7.80;99.90;;;;;;5078926;28;20221;-77
2021/10/17 04:53:46;;;;;;;3.85;3.55;;;7.80;99.90;;;;;;5085052;28;20277;-78
2021/10/17 04:56:13;;;;;;;3.75;3.45;;;7.80;99.90;;;;;;5080851;28;21127;-77
2021/10/17 04:58:40;;;;;;;3.70;3.40;;;7.80;99.90;;;;;;5078722;28;20271;-77
2021/10/17 05:01:09;;;;;;;3.58;3.30;;;7.80;99.90;;;;;;5081519;28;20298;-77
2021/10/17 05:03:38;;;;;;;3.55;3.25;;;7.80;99.90;;;;;;5076966;28;22275;-76
2021/10/17 05:06:05;;;;;;;3.25;3.05;;;7.80;99.90;;;;;;5077567;28;20318;-78
2021/10/17 05:08:32;;;;;;;3.83;3.53;;;7.80;99.90;;;;;;5078820;28;20317;-77
2021/10/17 05:10:59;;;;;;;3.75;3.45;;;7.80;99.90;;;;;;5079350;28;20224;-77
2021/10/17 05:13:26;;;;;;;3.97;3.67;;;7.80;99.90;;;;;;5072038;28;20772;-78
2021/10/17 05:15:54;;;;;;;3.65;3.35;;;7.80;99.90;;;;;;5070871;28;20322;-77
2021/10/17 05:18:21;;;;;;;3.53;3.22;;;7.80;99.90;;;;;;5072850;28;20722;-76
2021/10/17 05:20:49;;;;;;;3.95;3.53;;;7.80;99.90;;;;;;5074600;28;20221;-76
2021/10/17 05:23:16;;;;;;;3.65;3.45;;;7.80;99.90;;;;;;5075860;28;20638;-76
2021/10/17 05:25:44;;;;;;;3.58;3.28;;;7.80;99.90;;;;;;5074212;28;20221;-74
2021/10/17 05:28:11;;;;;;;3.83;3.53;;;7.80;99.90;;;;;;5076496;28;20225;-77
2021/10/17 05:30:38;;;;;;;3.83;3.55;;;7.80;99.90;;;;;;5077065;28;20221;-78
2021/10/17 05:33:05;;;;;;;3.88;3.55;;;7.70;99.90;;;;;;5077114;28;20649;-78
2021/10/17 05:35:32;;;;;;;3.83;3.53;;;7.80;99.90;;;;;;5077619;28;20286;-77
2021/10/17 05:38:01;;;;;;;3.72;3.42;;;7.70;99.90;;;;;;5074214;28;20270;-78
2021/10/17 05:40:28;;;;;;;3.40;3.20;;;7.70;99.90;;;;;;5076533;28;20225;-78
2021/10/17 05:42:55;;;;;;;3.92;3.63;;;7.70;99.90;;;;;;5075577;28;20233;-77
2021/10/17 05:45:22;;;;;;;3.97;3.67;;;7.80;99.90;;;;;;5073182;28;20225;-76
2021/10/17 05:47:49;;;;;;;3.38;3.13;;;7.70;99.90;;;;;;5077050;28;20711;-77
2021/10/17 05:50:16;;;;;;;3.95;3.63;;;7.70;99.90;;;;;;5067968;28;20217;-76
2021/10/17 05:52:43;;;;;;;3.83;3.53;;;7.80;99.90;;;;;;5072972;28;20296;-76
2021/10/17 05:55:12;;;;;;;4.07;3.72;;;7.70;99.90;;;;;;5074060;28;20271;-78
2021/10/17 05:57:39;;;;;;;3.58;3.28;;;7.70;99.90;;;;;;5075016;28;20229;-79
2021/10/17 06:00:07;;;;;;;3.22;3.03;;;7.70;99.90;;;;;;5076994;28;20738;-78
2021/10/17 06:02:34;;;;;;;3.47;3.22;;;7.70;99.90;;;;;;5077254;28;20270;-77
2021/10/17 06:05:01;;;;;;;3.90;3.60;;;7.70;99.90;;;;;;5074045;28;20282;-78
2021/10/17 06:07:29;;;;;;;3.92;3.63;;;7.70;99.90;;;;;;5076757;28;20214;-78
2021/10/17 06:09:56;;;;;;;4.15;3.53;;;7.70;99.90;;;;;;5074790;28;20243;-77
2021/10/17 06:12:24;;;;;;;4.43;3.97;;;7.70;99.90;;;;;;5076363;28;20317;-76
2021/10/17 06:14:51;;;;;;;3.92;3.63;;;7.70;99.90;;;;;;5077545;28;20735;-79
2021/10/17 06:17:18;;;;;;;3.92;3.63;;;7.70;99.90;;;;;;5074435;28;20224;-76
2021/10/17 06:19:45;;;;;;;3.70;3.40;;;7.70;99.90;;;;;;5077310;28;20796;-76
2021/10/17 06:22:12;;;;;;;3.55;3.25;;;7.70;99.90;;;;;;5073048;28;20267;-78
2021/10/17 06:24:39;;;;;;;3.58;3.30;;;7.70;99.90;;;;;;5074568;28;20221;-76
2021/10/17 06:27:06;;;;;;;3.92;3.63;;;7.80;99.90;;;;;;5079329;28;20243;-77
2021/10/17 06:29:35;;;;;;;3.97;3.65;;;7.80;99.90;;;;;;5084442;28;20283;-76
2021/10/17 06:32:02;;;;;;;4.20;3.90;;;7.90;99.90;;;;;;5084004;28;20225;-78
2021/10/17 06:34:29;;;;;;;4.32;4.03;;;7.90;99.90;;;;;;5084430;28;20221;-76
2021/10/17 06:36:56;;;;;;;3.30;3.10;;;7.90;99.90;;;;;;5088007;28;20213;-76
2021/10/17 06:39:23;;;;;;;3.88;3.55;;;8.00;99.90;;;;;;5086152;28;20279;-78
2021/10/17 06:41:50;;;;;;;3.55;3.25;;;8.00;99.90;;;;;;5081802;28;20267;-77
2021/10/17 06:44:18;;;;;;;3.70;3.40;;;8.10;99.90;;;;;;5103882;22;20299;-76
2021/10/17 06:46:47;;;;;;;3.58;3.28;;;8.10;99.90;;;;;;5044236;28;20314;-76
2021/10/17 06:49:14;;;;;;;3.90;3.55;;;8.10;99.90;;;;;;5053135;28;20219;-76
2021/10/17 06:51:41;;;;;;;3.58;3.38;;;8.10;99.90;;;;;;5056353;28;20211;-77
2021/10/17 06:54:08;;;;;;;3.80;3.50;;;8.40;99.90;;;;;;5053662;28;20222;-76
2021/10/17 06:56:35;;;;;;;3.70;3.40;;;9.10;99.90;;;;;;5056730;28;20234;-82
2021/10/17 06:59:02;;;;;;;4.28;3.97;;;9.90;99.90;;;;;;5055959;28;20228;-76
2021/10/17 07:01:30;;;;;;;4.00;3.70;;;10.70;99.90;;;;;;5058460;28;20879;-77
2021/10/17 07:03:58;;;;;;;5.43;3.55;;;11.30;99.90;;;;;;5056038;28;20210;-78
2021/10/17 07:06:25;;;;;;;4.43;3.63;;;11.80;99.90;;;;;;5058001;28;20222;-78
2021/10/17 07:08:52;;;;;;;3.90;3.60;;;12.30;99.90;;;;;;5059814;28;20237;-76
2021/10/17 07:11:19;;;;;;;3.80;3.50;;;12.60;99.90;;;;;;5062726;28;20214;-77
2021/10/17 07:13:46;;;;;;;5.75;4.05;;;13.00;99.90;;;;;;5064794;28;20218;-77
2021/10/17 07:16:14;;;;;;;4.07;3.78;;;13.40;99.90;;;;;;5066165;28;20227;-76
2021/10/17 07:18:41;;;;;;;3.92;3.63;;;13.70;99.90;;;;;;5065125;28;20237;-79
2021/10/17 07:21:10;;;;;;;4.88;4.47;;;13.90;99.90;;;;;;5062353;28;20225;-82
2021/10/17 07:23:37;;;;;;;4.30;3.90;;;14.10;99.90;;;;;;5059290;28;20226;-81
2021/10/17 07:26:04;;;;;;;4.50;4.10;;;14.30;99.90;;;;;;5056994;28;20229;-79
2021/10/17 07:28:31;;;;;;;4.35;3.95;;;14.40;99.90;;;;;;5060826;28;20230;-77
2021/10/17 07:30:58;;;;;;;4.18;3.88;;;14.50;99.90;;;;;;5063741;28;20485;-79
2021/10/17 07:33:25;;;;;;;4.07;3.78;;;14.50;99.90;;;;;;5062948;28;20629;-78
2021/10/17 07:35:52;;;;;;;4.05;3.72;;;14.70;99.90;;;;;;5066660;28;20730;-79
2021/10/17 07:38:20;;;;;;;3.90;3.60;;;15.10;99.90;;;;;;5064356;28;20605;-79
2021/10/17 07:40:47;;;;;;;3.72;3.42;;;15.20;99.90;;;;;;5061264;28;20705;-79
2021/10/17 07:43:14;;;;;;;4.20;3.80;;;15.30;99.90;;;;;;5059729;28;20223;-80
2021/10/17 07:45:41;;;;;;;4.10;3.70;;;15.30;99.90;;;;;;5063347;28;20223;-79
2021/10/17 07:48:10;;;;;;;3.70;3.40;;;15.60;99.90;;;;;;5058419;28;20223;-79
2021/10/17 07:50:37;;;;;;;3.92;3.63;;;15.70;99.90;;;;;;5059047;28;20751;-76
2021/10/17 07:53:05;;;;;;;4.45;3.55;;;15.60;99.90;;;;;;5060494;28;20528;-78
2021/10/17 07:55:33;;;;;;;3.90;3.60;;;15.40;99.90;;;;;;5066147;28;20250;-78
2021/10/17 07:58:00;;;;;;;3.53;3.25;;;15.40;99.90;;;;;;5067844;28;20425;-77
2021/10/17 08:00:30;;;;;;;3.70;3.40;;;15.40;99.90;;;;;;5064463;28;20283;-77
2021/10/17 08:02:57;;;;;;;3.58;3.20;;;15.50;99.90;;;;;;5055653;28;20226;-78
2021/10/17 08:05:24;;;;;;;3.28;2.97;;;15.80;99.90;;;;;;5056685;28;20236;-78
2021/10/17 08:07:53;;;;;;;3.38;3.08;;;16.10;99.90;;;;;;5060029;28;20260;-77
2021/10/17 08:10:20;;;;;;;3.65;3.35;;;16.40;99.90;;;;;;5056359;28;20279;-78
2021/10/17 08:12:49;;;;;;;5.13;3.92;;;16.40;99.90;;;;;;5059632;28;20230;-77
2021/10/17 08:15:16;;;;;;;4.28;3.78;;;16.40;99.90;;;;;;5056135;28;21898;-77
2021/10/17 08:17:43;;;;;;;4.00;3.67;;;16.40;99.90;;;;;;5059649;28;20793;-79
2021/10/17 08:20:11;;;;;;;3.80;3.50;;;16.30;99.90;;;;;;5058035;28;20226;-78
2021/10/17 08:22:38;;;;;;;4.00;3.60;;;16.40;99.90;;;;;;5059438;28;20226;-80
2021/10/17 08:25:06;;;;;;;4.03;3.50;;;16.30;99.90;;;;;;5056160;28;20740;-76
2021/10/17 08:27:33;;;;;;;4.22;3.20;;;16.40;99.90;;;;;;5057970;28;20242;-77
2021/10/17 08:30:03;;;;;;;3.60;3.30;;;16.60;99.90;;;;;;5059235;28;20220;-77
2021/10/17 08:32:30;;;;;;;4.32;3.50;;;16.80;99.90;;;;;;5058888;28;20227;-79
2021/10/17 08:34:57;;;;;;;6.03;3.40;;;16.60;99.90;;;;;;5057831;28;20222;-78
2021/10/17 08:37:24;;;;;;;3.70;3.38;;;16.70;99.90;;;;;;5060928;28;20700;-79
2021/10/17 08:39:51;;;;;;;3.40;3.10;;;16.90;99.90;;;;;;5052576;28;20287;-77
2021/10/17 08:42:18;;;;;;;4.03;3.70;;;17.30;99.90;;;;;;5058722;28;20222;-78
2021/10/17 08:44:45;;;;;;;3.58;3.28;;;17.50;99.90;;;;;;5057884;28;20280;-77
2021/10/17 08:47:18;;;;;;;3.42;3.13;;;17.50;99.90;;;;;;5066369;28;21053;-79
2021/10/17 08:49:45;;;;;;;3.65;3.35;;;17.70;99.90;;;;;;5039248;28;20480;-79
2021/10/17 08:52:13;;;;;;;3.72;3.40;;;17.90;99.90;;;;;;5071008;28;20226;-82
2021/10/17 08:54:40;;;;;;;4.30;3.58;;;17.80;99.90;;;;;;5063632;28;20226;-79
2021/10/17 08:57:07;;;;;;;3.83;3.50;;;17.70;99.90;;;;;;5062601;28;20218;-77
2021/10/17 08:59:36;;;;;;;3.70;3.45;;;17.70;99.90;;;;;;5059020;28;20283;-77
2021/10/17 09:02:14;;;;;;;4.10;3.70;;;17.60;99.90;;;;;;5059981;28;20605;-78
2021/10/17 09:04:42;;;;;;;4.35;3.95;;;17.70;99.90;;;;;;5059680;28;20225;-77
2021/10/17 09:07:20;;;;;;;4.28;3.88;;;17.70;99.90;;;;;;5060800;28;20289;-77
2021/10/17 09:10:06;;;;;;;4.18;3.58;;;17.60;99.90;;;;;;5062007;28;20225;-78
2021/10/17 09:12:34;;;;;;;3.35;3.05;;;17.60;99.90;;;;;;5060039;28;21250;-79
2021/10/17 09:15:24;;;;;;;4.82;4.00;;;17.80;99.90;;;;;;5055949;28;20314;-77
2021/10/17 09:18:13;;;;;;;3.92;3.63;;;17.70;99.90;;;;;;5059953;28;20230;-76
2021/10/17 09:20:59;;;;;;;4.25;3.60;;;17.70;99.90;;;;;;5059277;28;20639;-78
2021/10/17 09:23:38;;;;;;;3.70;3.40;;;17.70;99.90;;;;;;5016027;28;20210;-77
2021/10/17 09:26:14;;;;;;;3.88;3.55;;;17.80;99.90;;;;;;5058754;28;20684;-79
2021/10/17 09:28:42;;;;;;;4.88;3.63;;;17.90;99.90;;;;;;5060043;28;20600;-78
2021/10/17 09:31:11;;;;;;;4.18;3.50;;;17.70;99.90;;;;;;5061263;28;20224;-76
2021/10/17 09:33:44;;;;;;;4.07;3.28;;;17.60;99.90;;;;;;5060910;28;20226;-78
2021/10/17 09:36:20;;;;;;;3.97;3.58;;;17.70;99.90;;;;;;5062911;28;20650;-79
2021/10/17 09:38:50;;;;;;;4.20;3.38;;;18.00;99.90;;;;;;5066575;28;20217;-79
2021/10/17 09:41:19;;;;;;;7.40;4.00;;;18.20;99.90;;;;;;5055127;28;20620;-77
2021/10/17 09:43:56;;;;;;;3.88;3.47;;;18.20;99.90;;;;;;5061464;28;20214;-76
2021/10/17 09:46:24;;;;;;;5.22;3.50;;;18.40;99.90;;;;;;5028224;28;20222;-78
2021/10/17 09:48:52;;;;;;;4.28;3.47;;;18.70;99.90;;;;;;5058488;28;20677;-77
2021/10/17 09:51:23;;;;;;;4.28;3.40;;;18.60;99.90;;;;;;5055969;28;20229;-78
2021/10/17 09:53:52;;;;;;;4.10;3.70;;;18.70;99.90;;;;;;5059362;28;20249;-76
2021/10/17 09:56:36;;;;;;;4.03;3.72;;;18.70;99.90;;;;;;5061362;28;20225;-74
2021/10/17 09:59:05;;;;;;;3.67;3.38;;;18.80;99.90;;;;;;5061747;28;20245;-76
2021/10/17 10:01:34;;;;;;;3.38;3.08;;;19.10;99.90;;;;;;5061100;28;20218;-78
2021/10/17 10:04:05;;;;;;;3.72;3.42;;;19.10;99.90;;;;;;5055678;28;20221;-78
2021/10/17 10:06:33;;;;;;;3.85;3.40;;;19.20;99.90;;;;;;5058196;28;20237;-76
2021/10/17 10:09:05;;;;;;;3.95;3.50;;;19.00;99.90;;;;;;5054051;28;20233;-76
2021/10/17 10:11:33;;;;;;;4.03;3.35;;;19.00;99.90;;;;;;5062168;28;20312;-76
2021/10/17 10:14:03;;;;;;;3.97;3.33;;;19.00;99.90;;;;;;5055765;28;20225;-76
2021/10/17 10:16:31;;;;;;;3.90;3.60;;;19.10;99.90;;;;;;5057561;28;20272;-76
2021/10/17 10:18:59;;;;;;;4.50;3.20;;;19.00;99.90;;;;;;5060078;28;20219;-76
2021/10/17 10:21:28;;;;;;;4.75;3.63;;;18.80;99.90;;;;;;5057963;28;20221;-76
2021/10/17 10:23:58;;;;;;;2.95;2.75;;;18.90;99.90;;;;;;5063372;28;20294;-78
2021/10/17 10:26:27;;;;;;;3.70;3.40;;;19.00;99.90;;;;;;5060203;28;20226;-76
2021/10/17 10:28:55;;;;;;;3.33;3.00;;;19.30;99.90;;;;;;5058953;28;20219;-75
2021/10/17 10:31:50;;;;;;;3.60;3.30;;;19.60;99.90;;;;;;5054804;28;20736;-77
2021/10/17 10:34:52;;;;;;;3.33;3.03;;;19.50;99.90;;;;;;5062347;28;20219;-75
2021/10/17 10:37:22;;;;;;;3.38;3.08;;;19.50;99.90;;;;;;5063611;28;20301;-77
2021/10/17 10:40:15;;;;;;;3.28;2.97;;;19.80;99.90;;;;;;5065661;28;20553;-75
2021/10/17 10:42:44;;;;;;;2.90;2.65;;;19.60;99.90;;;;;;5061438;28;20218;-75
2021/10/17 10:45:22;;;;;;;3.50;3.20;;;19.40;99.90;;;;;;5062200;28;20222;-77
2021/10/17 10:48:10;;;;;;;3.10;2.90;;;19.30;99.90;;;;;;5062592;28;20279;-76
2021/10/17 10:50:39;;;;;;;3.80;2.90;;;19.10;99.90;;;;;;5061768;28;20225;-76
2021/10/17 10:53:07;;;;;;;3.55;2.95;;;19.30;99.90;;;;;;5058423;28;20217;-76
2021/10/17 10:55:46;;;;;;;3.30;3.03;;;19.50;99.90;;;;;;5062137;28;20268;-76
2021/10/17 10:58:25;;;;;;;3.05;2.70;;;19.30;99.90;;;;;;5059083;28;20299;-77
2021/10/17 11:00:53;;;;;;;3.40;3.10;;;19.40;99.90;;;;;;5057883;28;20233;-75
2021/10/17 11:03:21;;;;;;;3.22;2.92;;;19.40;99.90;;;;;;5053689;28;20230;-75
2021/10/17 11:06:17;;;;;;;3.17;2.88;;;19.70;99.90;;;;;;5060649;28;20230;-75
2021/10/17 11:09:24;;;;;;;3.13;2.83;;;20.00;99.90;;;;;;5057364;28;20219;-75
2021/10/17 11:11:51;;;;;;;3.10;2.72;;;19.70;99.90;;;;;;5056081;28;20768;-75
2021/10/17 11:14:18;;;;;;;2.90;2.70;;;19.40;99.90;;;;;;5060101;28;20236;-75
2021/10/17 11:16:45;;;;;;;2.45;2.25;;;19.50;99.90;;;;;;5057736;28;20730;-74
2021/10/17 11:19:14;;;;;;;2.95;2.75;;;19.70;99.90;;;;;;5061160;28;20226;-75
2021/10/17 11:21:41;;;;;;;3.00;2.80;;;19.80;99.90;;;;;;5055422;28;20222;-75
2021/10/17 11:24:11;;;;;;;3.15;2.92;;;19.80;99.90;;;;;;5057231;28;20230;-75
2021/10/17 11:26:39;;;;;;;3.35;3.03;;;19.80;99.90;;;;;;5056379;28;20226;-74
2021/10/17 11:29:06;;;;;;;3.85;2.78;;;19.60;99.90;;;;;;5056444;28;20234;-74
2021/10/17 11:31:33;;;;;;;2.70;2.50;;;19.60;99.90;;;;;;5061889;28;20222;-74
2021/10/17 11:34:02;;;;;;;3.15;2.95;;;19.80;99.90;;;;;;5058471;28;20221;-74
2021/10/17 11:36:30;;;;;;;3.88;3.15;;;19.90;99.90;;;;;;5056769;28;20221;-74
2021/10/17 11:38:58;;;;;;;3.40;2.95;;;19.90;99.90;;;;;;5055842;28;20275;-75
2021/10/17 11:41:27;;;;;;;2.67;2.47;;;19.50;99.90;;;;;;5061854;28;20218;-74
2021/10/17 11:43:56;;;;;;;2.35;2.15;;;19.60;99.90;;;;;;5062184;28;20226;-75
2021/10/17 11:46:24;;;;;;;2.83;2.63;;;19.60;99.90;;;;;;5071222;28;20233;-76
2021/10/17 11:48:59;;;;;;;2.78;2.58;;;19.50;99.90;;;;;;5064184;28;20345;-75
2021/10/17 11:51:26;;;;;;;3.05;2.72;;;19.40;99.90;;;;;;5060625;28;20222;-76
2021/10/17 11:53:57;;;;;;;2.78;2.58;;;19.60;99.90;;;;;;5058432;28;20275;-74
2021/10/17 11:56:26;;;;;;;2.80;2.45;;;19.70;99.90;;;;;;5060144;28;20381;-76
2021/10/17 11:58:53;;;;;;;3.30;3.03;;;19.60;99.90;;;;;;5063264;28;20229;-75
2021/10/17 12:01:20;;;;;;;2.30;2.10;;;19.40;99.90;;;;;;5057246;28;20629;-75
2021/10/17 12:03:53;;;;;;;3.17;2.88;;;19.30;99.90;;;;;;5063007;28;20218;-76
2021/10/17 12:06:21;;;;;;;2.80;2.60;;;19.40;99.90;;;;;;5053248;28;20231;-76
2021/10/17 12:08:53;;;;;;;3.05;2.53;;;19.60;99.90;;;;;;5060940;28;20268;-76
2021/10/17 12:11:20;;;;;;;3.10;2.90;;;19.80;99.90;;;;;;5057545;28;20716;-75
2021/10/17 12:13:50;;;;;;;2.75;2.55;;;19.70;99.90;;;;;;5056620;28;20217;-76
2021/10/17 12:16:19;;;;;;;2.60;2.40;;;19.60;99.90;;;;;;5056395;28;20254;-74
2021/10/17 12:18:47;;;;;;;2.45;2.25;;;19.60;99.90;;;;;;5063691;28;20719;-76
2021/10/17 12:21:17;;;;;;;2.40;2.30;;;19.80;99.90;;;;;;5058533;28;20268;-75
2021/10/17 12:23:45;;;;;;;3.08;2.83;;;19.70;99.90;;;;;;5051774;28;20226;-76
2021/10/17 12:26:15;;;;;;;2.95;2.75;;;19.60;99.90;;;;;;5056732;28;20225;-75
2021/10/17 12:28:42;;;;;;;2.70;2.50;;;19.50;99.90;;;;;;5055530;28;20295;-76
2021/10/17 12:31:11;;;;;;;3.22;2.55;;;19.20;99.90;;;;;;5055159;28;20218;-76
2021/10/17 12:33:41;;;;;;;2.47;2.28;;;19.50;99.90;;;;;;5054440;28;20295;-74
2021/10/17 12:36:22;;;;;;;3.45;2.50;;;19.60;99.90;;;;;;5060667;28;20303;-76
2021/10/17 12:38:59;;;;;;;3.53;2.47;;;19.70;99.90;;;;;;5052907;28;20298;-76
2021/10/17 12:41:29;;;;;;;2.90;2.60;;;19.80;99.90;;;;;;5059275;28;20999;-76
2021/10/17 12:44:00;;;;;;;3.33;3.03;;;19.80;99.90;;;;;;5055090;28;20227;-73
2021/10/17 12:46:29;;;;;;;2.20;2.00;;;19.70;99.90;;;;;;5084918;22;20321;-74
2021/10/17 12:48:56;;;;;;;2.70;2.50;;;19.80;99.90;;;;;;5073377;28;20229;-75
2021/10/17 12:51:32;;;;;;;3.05;2.80;;;19.70;99.90;;;;;;5076819;28;20226;-74
2021/10/17 12:54:08;;;;;;;2.60;2.40;;;19.80;99.90;;;;;;5077613;28;20643;-76
2021/10/17 12:56:36;;;;;;;2.92;2.72;;;19.90;99.90;;;;;;5076548;28;20680;-75
2021/10/17 12:59:11;;;;;;;2.60;2.40;;;19.70;99.90;;;;;;5065738;28;20222;-75
2021/10/17 13:02:05;;;;;;;2.33;2.17;;;19.60;99.90;;;;;;5061617;28;20301;-74